sensor_id;sensor_type;location;lat;lon;timestamp;pressure;altitude;pressure_sealevel;temperature;humidity
3132;BME280;62090;52.330;9.104;2023-01-26T00:00:53;101942.13;;;0.76;94.69
3132;BME280;62090;52.330;9.104;2023-01-26T00:03:24;101943.09;;;0.48;95.13
3132;BME280;62090;52.330;9.104;2023-01-26T00:05:54;101939.09;;;0.50;96.90
3132;BME280;62090;52.330;9.104;2023-01-26T00:08:23;101923.53;;;0.44;96.72
3132;BME280;62090;52.330;9.104;2023-01-26T00:10:56;101945.38;;;0.65;96.70
3132;BME280;62090;52.330;9.104;2023-01-26T00:13:25;101925.31;;;0.65;96.80
3132;BME280;62090;52.330;9.104;2023-01-26T00:15:55;101915.78;;;0.61;96.16
3132;BME280;62090;52.330;9.104;2023-01-26T00:18:25;101909.00;;;0.70;96.46
3132;BME280;62090;52.330;9.104;2023-01-26T00:20:55;101871.16;;;0.47;96.21
3132;BME280;62090;52.330;9.104;2023-01-26T00:23:26;101923.31;;;0.92;95.86
3132;BME280;62090;52.330;9.104;2023-01-26T00:25:59;101912.53;;;0.93;95.62
3132;BME280;62090;52.330;9.104;2023-01-26T00:28:28;101923.06;;;0.89;95.61
3132;BME280;62090;52.330;9.104;2023-01-26T00:31:03;101868.66;;;0.57;95.61
3132;BME280;62090;52.330;9.104;2023-01-26T00:33:35;101862.75;;;0.57;97.08
3132;BME280;62090;52.330;9.104;2023-01-26T00:36:06;101909.88;;;0.81;97.50
3132;BME280;62090;52.330;9.104;2023-01-26T00:38:36;101908.63;;;0.86;97.41
3132;BME280;62090;52.330;9.104;2023-01-26T00:41:10;101908.75;;;0.88;96.99
3132;BME280;62090;52.330;9.104;2023-01-26T00:44:00;101909.00;;;0.80;97.99
3132;BME280;62090;52.330;9.104;2023-01-26T00:46:30;101885.06;;;0.84;98.04
3132;BME280;62090;52.330;9.104;2023-01-26T00:49:00;101887.44;;;0.82;97.62
3132;BME280;62090;52.330;9.104;2023-01-26T00:51:32;101881.31;;;0.79;98.10
3132;BME280;62090;52.330;9.104;2023-01-26T00:54:03;101889.44;;;0.87;97.47
3132;BME280;62090;52.330;9.104;2023-01-26T00:56:35;101868.00;;;0.70;98.00
3132;BME280;62090;52.330;9.104;2023-01-26T00:59:05;101883.69;;;0.77;98.66
3132;BME280;62090;52.330;9.104;2023-01-26T01:01:35;101867.13;;;0.59;97.87
3132;BME280;62090;52.330;9.104;2023-01-26T01:04:05;101871.38;;;0.60;98.90
3132;BME280;62090;52.330;9.104;2023-01-26T01:06:35;101867.13;;;0.59;99.41
3132;BME280;62090;52.330;9.104;2023-01-26T01:09:05;101868.66;;;0.57;99.64
3132;BME280;62090;52.330;9.104;2023-01-26T01:11:37;101852.06;;;0.39;100.00
3132;BME280;62090;52.330;9.104;2023-01-26T01:14:09;101863.88;;;0.40;100.00
3132;BME280;62090;52.330;9.104;2023-01-26T01:16:39;101867.38;;;0.42;100.00
3132;BME280;62090;52.330;9.104;2023-01-26T01:19:12;101854.34;;;0.66;100.00
3132;BME280;62090;52.330;9.104;2023-01-26T01:21:43;101821.47;;;0.43;100.00
3132;BME280;62090;52.330;9.104;2023-01-26T01:24:13;101844.56;;;0.59;100.00
3132;BME280;62090;52.330;9.104;2023-01-26T01:26:45;101859.72;;;0.71;100.00
3132;BME280;62090;52.330;9.104;2023-01-26T01:29:15;101841.28;;;0.60;100.00
3132;BME280;62090;52.330;9.104;2023-01-26T01:31:45;101848.31;;;0.64;100.00
3132;BME280;62090;52.330;9.104;2023-01-26T01:34:14;101854.81;;;0.82;100.00
3132;BME280;62090;52.330;9.104;2023-01-26T01:36:44;101854.19;;;1.05;100.00
3132;BME280;62090;52.330;9.104;2023-01-26T01:39:14;101836.94;;;1.20;98.67
3132;BME280;62090;52.330;9.104;2023-01-26T01:41:46;101830.78;;;1.16;97.24
3132;BME280;62090;52.330;9.104;2023-01-26T01:44:18;101837.81;;;1.20;96.72
3132;BME280;62090;52.330;9.104;2023-01-26T01:46:52;101830.38;;;1.22;96.08
3132;BME280;62090;52.330;9.104;2023-01-26T01:49:26;101836.69;;;1.17;96.02
3132;BME280;62090;52.330;9.104;2023-01-26T01:52:00;101843.22;;;1.15;96.22
3132;BME280;62090;52.330;9.104;2023-01-26T01:54:34;101853.09;;;1.23;96.75
3132;BME280;62090;52.330;9.104;2023-01-26T01:57:11;101849.47;;;1.30;96.32
3132;BME280;62090;52.330;9.104;2023-01-26T01:59:50;101837.66;;;1.29;96.96
3132;BME280;62090;52.330;9.104;2023-01-26T02:02:22;101835.22;;;1.41;96.03
3132;BME280;62090;52.330;9.104;2023-01-26T02:04:53;101834.31;;;1.50;94.34
3132;BME280;62090;52.330;9.104;2023-01-26T02:07:26;101841.63;;;1.47;94.75
3132;BME280;62090;52.330;9.104;2023-01-26T02:09:58;101828.84;;;1.34;95.16
3132;BME280;62090;52.330;9.104;2023-01-26T02:12:45;101844.13;;;1.47;95.77
3132;BME280;62090;52.330;9.104;2023-01-26T02:15:16;101836.34;;;1.44;96.50
3132;BME280;62090;52.330;9.104;2023-01-26T02:17:46;101835.81;;;1.48;96.80
3132;BME280;62090;52.330;9.104;2023-01-26T02:20:21;101831.94;;;1.52;96.63
3132;BME280;62090;52.330;9.104;2023-01-26T02:22:58;101776.16;;;1.24;96.41
3132;BME280;62090;52.330;9.104;2023-01-26T02:25:35;101820.00;;;1.49;96.23
3132;BME280;62090;52.330;9.104;2023-01-26T02:28:11;101814.22;;;1.50;95.27
3132;BME280;62090;52.330;9.104;2023-01-26T02:30:41;101823.16;;;1.47;95.69
3132;BME280;62090;52.330;9.104;2023-01-26T02:33:13;101825.63;;;1.57;94.53
3132;BME280;62090;52.330;9.104;2023-01-26T02:35:43;101812.22;;;1.46;96.23
3132;BME280;62090;52.330;9.104;2023-01-26T02:38:13;101809.94;;;1.49;96.26
3132;BME280;62090;52.330;9.104;2023-01-26T02:40:47;101801.66;;;1.50;95.96
3132;BME280;62090;52.330;9.104;2023-01-26T02:43:23;101822.44;;;1.59;96.05
3132;BME280;62090;52.330;9.104;2023-01-26T02:45:51;101823.59;;;1.63;95.63
3132;BME280;62090;52.330;9.104;2023-01-26T02:48:21;101815.19;;;1.62;96.96
3132;BME280;62090;52.330;9.104;2023-01-26T02:51:04;101817.16;;;1.66;97.07
3132;BME280;62090;52.330;9.104;2023-01-26T02:53:34;101754.59;;;1.26;98.27
3132;BME280;62090;52.330;9.104;2023-01-26T02:56:04;101761.06;;;1.34;98.20
3132;BME280;62090;52.330;9.104;2023-01-26T02:58:35;101810.25;;;1.42;99.61
3132;BME280;62090;52.330;9.104;2023-01-26T03:01:04;101815.00;;;1.39;99.83
3132;BME280;62090;52.330;9.104;2023-01-26T03:03:45;101812.81;;;1.22;100.00
3132;BME280;62090;52.330;9.104;2023-01-26T03:06:15;101810.34;;;1.12;100.00
3132;BME280;62090;52.330;9.104;2023-01-26T03:08:45;101811.97;;;1.21;100.00
3132;BME280;62090;52.330;9.104;2023-01-26T03:11:14;101824.56;;;1.33;100.00
3132;BME280;62090;52.330;9.104;2023-01-26T03:13:47;101834.97;;;1.48;100.00
3132;BME280;62090;52.330;9.104;2023-01-26T03:16:16;101839.03;;;1.36;100.00
3132;BME280;62090;52.330;9.104;2023-01-26T03:18:46;101827.91;;;1.44;100.00
3132;BME280;62090;52.330;9.104;2023-01-26T03:21:43;101822.47;;;1.27;100.00
3132;BME280;62090;52.330;9.104;2023-01-26T03:24:26;101829.59;;;1.33;100.00
3132;BME280;62090;52.330;9.104;2023-01-26T03:27:08;101839.16;;;1.37;100.00
3132;BME280;62090;52.330;9.104;2023-01-26T03:29:54;101822.94;;;1.34;100.00
3132;BME280;62090;52.330;9.104;2023-01-26T03:32:24;101811.75;;;1.40;100.00
3132;BME280;62090;52.330;9.104;2023-01-26T03:34:54;101783.38;;;1.09;100.00
3132;BME280;62090;52.330;9.104;2023-01-26T03:37:24;101796.22;;;1.34;100.00
3132;BME280;62090;52.330;9.104;2023-01-26T03:40:05;101801.22;;;1.34;100.00
3132;BME280;62090;52.330;9.104;2023-01-26T03:42:48;101752.81;;;0.93;100.00
3132;BME280;62090;52.330;9.104;2023-01-26T03:45:33;101783.50;;;1.11;100.00
3132;BME280;62090;52.330;9.104;2023-01-26T03:48:17;101792.38;;;1.17;100.00
3132;BME280;62090;52.330;9.104;2023-01-26T03:51:01;101804.00;;;1.27;100.00
3132;BME280;62090;52.330;9.104;2023-01-26T03:53:43;101793.97;;;1.27;100.00
3132;BME280;62090;52.330;9.104;2023-01-26T03:56:26;101779.56;;;1.24;100.00
3132;BME280;62090;52.330;9.104;2023-01-26T03:59:05;101787.31;;;1.27;100.00
3132;BME280;62090;52.330;9.104;2023-01-26T04:01:44;101784.00;;;1.39;100.00
3132;BME280;62090;52.330;9.104;2023-01-26T04:04:27;101785.69;;;1.28;100.00
3132;BME280;62090;52.330;9.104;2023-01-26T04:07:10;101792.19;;;1.36;100.00
3132;BME280;62090;52.330;9.104;2023-01-26T04:09:52;101800.22;;;1.42;100.00
3132;BME280;62090;52.330;9.104;2023-01-26T04:12:22;101783.91;;;1.37;100.00
3132;BME280;62090;52.330;9.104;2023-01-26T04:15:06;101789.34;;;1.53;100.00
3132;BME280;62090;52.330;9.104;2023-01-26T04:17:51;101781.09;;;1.44;100.00
3132;BME280;62090;52.330;9.104;2023-01-26T04:20:34;101777.06;;;1.46;100.00
3132;BME280;62090;52.330;9.104;2023-01-26T04:23:16;101771.97;;;1.35;100.00
3132;BME280;62090;52.330;9.104;2023-01-26T04:25:49;101792.38;;;1.49;100.00
3132;BME280;62090;52.330;9.104;2023-01-26T04:28:18;101770.00;;;1.31;100.00
3132;BME280;62090;52.330;9.104;2023-01-26T04:30:48;101787.81;;;1.55;100.00
3132;BME280;62090;52.330;9.104;2023-01-26T04:33:20;101781.84;;;1.65;100.00
3132;BME280;62090;52.330;9.104;2023-01-26T04:35:50;101776.81;;;1.53;100.00
3132;BME280;62090;52.330;9.104;2023-01-26T04:38:20;101771.72;;;1.42;100.00
3132;BME280;62090;52.330;9.104;2023-01-26T04:40:52;101780.81;;;1.51;100.00
3132;BME280;62090;52.330;9.104;2023-01-26T04:43:22;101785.84;;;1.51;100.00
3132;BME280;62090;52.330;9.104;2023-01-26T04:45:59;101728.59;;;1.25;100.00
3132;BME280;62090;52.330;9.104;2023-01-26T04:48:34;101789.31;;;1.63;100.00
3132;BME280;62090;52.330;9.104;2023-01-26T04:51:06;101776.41;;;1.49;100.00
3132;BME280;62090;52.330;9.104;2023-01-26T04:53:36;101773.41;;;1.53;100.00
3132;BME280;62090;52.330;9.104;2023-01-26T04:56:07;101770.00;;;1.52;100.00
3132;BME280;62090;52.330;9.104;2023-01-26T04:58:37;101777.69;;;1.44;100.00
3132;BME280;62090;52.330;9.104;2023-01-26T05:01:07;101743.72;;;1.37;100.00
3132;BME280;62090;52.330;9.104;2023-01-26T05:03:40;101769.88;;;1.51;100.00
3132;BME280;62090;52.330;9.104;2023-01-26T05:06:10;101768.78;;;1.47;100.00
3132;BME280;62090;52.330;9.104;2023-01-26T05:08:43;101769.88;;;1.51;100.00
3132;BME280;62090;52.330;9.104;2023-01-26T05:11:13;101707.91;;;1.18;100.00
3132;BME280;62090;52.330;9.104;2023-01-26T05:14:05;101764.66;;;1.48;100.00
3132;BME280;62090;52.330;9.104;2023-01-26T05:16:54;101719.31;;;1.24;100.00
3132;BME280;62090;52.330;9.104;2023-01-26T05:19:36;101749.94;;;1.52;100.00
3132;BME280;62090;52.330;9.104;2023-01-26T05:22:31;101769.84;;;1.61;100.00
3132;BME280;62090;52.330;9.104;2023-01-26T05:25:29;101755.41;;;1.58;100.00
3132;BME280;62090;52.330;9.104;2023-01-26T05:28:06;101750.81;;;1.53;100.00
3132;BME280;62090;52.330;9.104;2023-01-26T05:30:36;101707.34;;;1.32;100.00
3132;BME280;62090;52.330;9.104;2023-01-26T05:33:07;101775.13;;;1.76;100.00
3132;BME280;62090;52.330;9.104;2023-01-26T05:35:41;101770.25;;;1.77;100.00
3132;BME280;62090;52.330;9.104;2023-01-26T05:38:10;101773.75;;;1.79;100.00
3132;BME280;62090;52.330;9.104;2023-01-26T05:40:40;101772.88;;;1.79;100.00
3132;BME280;62090;52.330;9.104;2023-01-26T05:43:11;101778.00;;;1.80;100.00
3132;BME280;62090;52.330;9.104;2023-01-26T05:45:59;101746.53;;;1.52;100.00
3132;BME280;62090;52.330;9.104;2023-01-26T05:48:29;101774.22;;;1.63;100.00
3132;BME280;62090;52.330;9.104;2023-01-26T05:51:02;101773.69;;;1.67;100.00
3132;BME280;62090;52.330;9.104;2023-01-26T05:53:34;101771.00;;;1.54;100.00
3132;BME280;62090;52.330;9.104;2023-01-26T05:56:04;101777.25;;;1.59;100.00
3132;BME280;62090;52.330;9.104;2023-01-26T05:58:37;101786.41;;;1.59;100.00
3132;BME280;62090;52.330;9.104;2023-01-26T06:01:07;101776.28;;;1.57;100.00
3132;BME280;62090;52.330;9.104;2023-01-26T06:03:45;101776.28;;;1.57;100.00
3132;BME280;62090;52.330;9.104;2023-01-26T06:06:18;101769.88;;;1.51;100.00
3132;BME280;62090;52.330;9.104;2023-01-26T06:08:52;101768.59;;;1.34;100.00
3132;BME280;62090;52.330;9.104;2023-01-26T06:11:31;101776.28;;;1.25;100.00
3132;BME280;62090;52.330;9.104;2023-01-26T06:14:13;101782.69;;;1.32;100.00
3132;BME280;62090;52.330;9.104;2023-01-26T06:16:43;101794.03;;;1.39;100.00
3132;BME280;62090;52.330;9.104;2023-01-26T06:19:12;101778.75;;;1.36;100.00
3132;BME280;62090;52.330;9.104;2023-01-26T06:21:50;101772.81;;;1.45;100.00
3132;BME280;62090;52.330;9.104;2023-01-26T06:24:22;101771.41;;;1.49;100.00
3132;BME280;62090;52.330;9.104;2023-01-26T06:26:52;101775.50;;;1.58;100.00
3132;BME280;62090;52.330;9.104;2023-01-26T06:29:21;101779.41;;;1.55;100.00
3132;BME280;62090;52.330;9.104;2023-01-26T06:31:51;101774.91;;;1.51;100.00
3132;BME280;62090;52.330;9.104;2023-01-26T06:34:21;101783.56;;;1.54;100.00
3132;BME280;62090;52.330;9.104;2023-01-26T06:36:53;101779.81;;;1.49;100.00
3132;BME280;62090;52.330;9.104;2023-01-26T06:39:28;101786.31;;;1.57;100.00
3132;BME280;62090;52.330;9.104;2023-01-26T06:41:59;101792.31;;;1.59;100.00
3132;BME280;62090;52.330;9.104;2023-01-26T06:44:29;101788.16;;;1.60;100.00
3132;BME280;62090;52.330;9.104;2023-01-26T06:46:59;101740.09;;;1.34;100.00
3132;BME280;62090;52.330;9.104;2023-01-26T06:49:28;101754.59;;;1.48;100.00
3132;BME280;62090;52.330;9.104;2023-01-26T06:52:20;101751.41;;;1.28;100.00
3132;BME280;62090;52.330;9.104;2023-01-26T06:54:52;101769.06;;;1.40;100.00
3132;BME280;62090;52.330;9.104;2023-01-26T06:57:40;101751.00;;;1.34;100.00
3132;BME280;62090;52.330;9.104;2023-01-26T07:00:29;101780.00;;;1.62;100.00
3132;BME280;62090;52.330;9.104;2023-01-26T07:03:17;101760.66;;;1.40;100.00
3132;BME280;62090;52.330;9.104;2023-01-26T07:05:47;101729.13;;;1.21;100.00
3132;BME280;62090;52.330;9.104;2023-01-26T07:08:19;101768.00;;;1.48;100.00
3132;BME280;62090;52.330;9.104;2023-01-26T07:10:49;101789.38;;;1.43;100.00
3132;BME280;62090;52.330;9.104;2023-01-26T07:13:19;101780.75;;;1.40;100.00
3132;BME280;62090;52.330;9.104;2023-01-26T07:15:49;101784.66;;;1.36;100.00
3132;BME280;62090;52.330;9.104;2023-01-26T07:18:18;101767.00;;;1.24;100.00
3132;BME280;62090;52.330;9.104;2023-01-26T07:20:48;101788.63;;;1.44;100.00
3132;BME280;62090;52.330;9.104;2023-01-26T07:23:20;101792.28;;;1.38;100.00
3132;BME280;62090;52.330;9.104;2023-01-26T07:25:50;101783.13;;;1.38;100.00
3132;BME280;62090;52.330;9.104;2023-01-26T07:28:20;101788.53;;;1.43;100.00
3132;BME280;62090;52.330;9.104;2023-01-26T07:30:51;101782.16;;;1.58;100.00
3132;BME280;62090;52.330;9.104;2023-01-26T07:33:21;101777.16;;;1.58;100.00
3132;BME280;62090;52.330;9.104;2023-01-26T07:35:51;101776.28;;;1.57;100.00
3132;BME280;62090;52.330;9.104;2023-01-26T07:38:24;101792.66;;;1.64;100.00
3132;BME280;62090;52.330;9.104;2023-01-26T07:40:55;101749.50;;;1.36;100.00
3132;BME280;62090;52.330;9.104;2023-01-26T07:43:25;101801.13;;;1.54;100.00
3132;BME280;62090;52.330;9.104;2023-01-26T07:45:54;101792.44;;;1.61;100.00
3132;BME280;62090;52.330;9.104;2023-01-26T07:48:24;101781.69;;;1.52;100.00
3132;BME280;62090;52.330;9.104;2023-01-26T07:50:59;101774.63;;;1.36;100.00
3132;BME280;62090;52.330;9.104;2023-01-26T07:53:32;101773.34;;;1.41;100.00
3132;BME280;62090;52.330;9.104;2023-01-26T07:56:07;101771.34;;;1.37;100.00
3132;BME280;62090;52.330;9.104;2023-01-26T07:58:38;101799.41;;;1.53;100.00
3132;BME280;62090;52.330;9.104;2023-01-26T08:01:09;101777.28;;;1.49;100.00
3132;BME280;62090;52.330;9.104;2023-01-26T08:03:39;101799.34;;;1.63;100.00
3132;BME280;62090;52.330;9.104;2023-01-26T08:06:12;101801.38;;;1.57;100.00
3132;BME280;62090;52.330;9.104;2023-01-26T08:08:46;101801.25;;;1.56;100.00
3132;BME280;62090;52.330;9.104;2023-01-26T08:11:19;101780.28;;;1.55;100.00
3132;BME280;62090;52.330;9.104;2023-01-26T08:13:50;101793.78;;;1.67;100.00
3132;BME280;62090;52.330;9.104;2023-01-26T08:16:20;101798.50;;;1.75;100.00
3132;BME280;62090;52.330;9.104;2023-01-26T08:18:49;101809.56;;;1.77;100.00
3132;BME280;62090;52.330;9.104;2023-01-26T08:21:19;101803.53;;;1.75;100.00
3132;BME280;62090;52.330;9.104;2023-01-26T08:23:51;101797.66;;;1.74;100.00
3132;BME280;62090;52.330;9.104;2023-01-26T08:26:21;101810.78;;;1.82;100.00
3132;BME280;62090;52.330;9.104;2023-01-26T08:28:51;101813.28;;;1.82;100.00
3132;BME280;62090;52.330;9.104;2023-01-26T08:31:21;101806.75;;;1.84;100.00
3132;BME280;62090;52.330;9.104;2023-01-26T08:33:51;101819.28;;;1.94;100.00
3132;BME280;62090;52.330;9.104;2023-01-26T08:36:22;101821.91;;;1.95;100.00
3132;BME280;62090;52.330;9.104;2023-01-26T08:38:54;101807.44;;;1.93;100.00
3132;BME280;62090;52.330;9.104;2023-01-26T08:41:23;101822.31;;;1.90;100.00
3132;BME280;62090;52.330;9.104;2023-01-26T08:43:53;101799.34;;;1.63;100.00
3132;BME280;62090;52.330;9.104;2023-01-26T08:46:25;101815.69;;;1.80;100.00
3132;BME280;62090;52.330;9.104;2023-01-26T08:48:54;101814.00;;;1.91;100.00
3132;BME280;62090;52.330;9.104;2023-01-26T08:51:26;101814.25;;;1.94;100.00
3132;BME280;62090;52.330;9.104;2023-01-26T08:53:58;101790.94;;;1.85;100.00
3132;BME280;62090;52.330;9.104;2023-01-26T08:56:28;101808.47;;;1.95;100.00
3132;BME280;62090;52.330;9.104;2023-01-26T08:58:57;101807.66;;;1.96;100.00
3132;BME280;62090;52.330;9.104;2023-01-26T09:01:27;101802.63;;;2.63;100.00
3132;BME280;62090;52.330;9.104;2023-01-26T09:03:57;101824.34;;;2.39;100.00
3132;BME280;62090;52.330;9.104;2023-01-26T09:06:27;101806.47;;;2.24;100.00
3132;BME280;62090;52.330;9.104;2023-01-26T09:09:01;101812.50;;;2.26;100.00
3132;BME280;62090;52.330;9.104;2023-01-26T09:11:31;101771.38;;;1.92;100.00
3132;BME280;62090;52.330;9.104;2023-01-26T09:14:03;101821.53;;;1.91;100.00
3132;BME280;62090;52.330;9.104;2023-01-26T09:16:33;101816.63;;;1.92;100.00
3132;BME280;62090;52.330;9.104;2023-01-26T09:19:02;101820.84;;;2.03;100.00
3132;BME280;62090;52.330;9.104;2023-01-26T09:21:32;101826.44;;;2.11;100.00
3132;BME280;62090;52.330;9.104;2023-01-26T09:24:05;101772.56;;;1.86;100.00
3132;BME280;62090;52.330;9.104;2023-01-26T09:26:35;101815.50;;;2.10;100.00
3132;BME280;62090;52.330;9.104;2023-01-26T09:29:04;101806.88;;;2.19;100.00
3132;BME280;62090;52.330;9.104;2023-01-26T09:31:34;101814.47;;;2.30;100.00
3132;BME280;62090;52.330;9.104;2023-01-26T09:34:05;101815.63;;;2.45;100.00
3132;BME280;62090;52.330;9.104;2023-01-26T09:36:35;101808.03;;;2.34;100.00
3132;BME280;62090;52.330;9.104;2023-01-26T09:39:09;101818.75;;;2.31;100.00
3132;BME280;62090;52.330;9.104;2023-01-26T09:41:49;101806.19;;;2.31;100.00
3132;BME280;62090;52.330;9.104;2023-01-26T09:44:23;101809.41;;;2.52;100.00
3132;BME280;62090;52.330;9.104;2023-01-26T09:47:01;101819.47;;;2.52;100.00
3132;BME280;62090;52.330;9.104;2023-01-26T09:49:43;101793.44;;;2.51;100.00
3132;BME280;62090;52.330;9.104;2023-01-26T09:52:21;101820.13;;;2.61;100.00
3132;BME280;62090;52.330;9.104;2023-01-26T09:54:59;101824.19;;;2.71;100.00
3132;BME280;62090;52.330;9.104;2023-01-26T09:57:33;101809.44;;;2.64;100.00
3132;BME280;62090;52.330;9.104;2023-01-26T10:00:06;101822.44;;;2.70;100.00
3132;BME280;62090;52.330;9.104;2023-01-26T10:02:48;101768.91;;;2.49;100.00
3132;BME280;62090;52.330;9.104;2023-01-26T10:05:29;101823.84;;;2.66;100.00
3132;BME280;62090;52.330;9.104;2023-01-26T10:08:09;101815.00;;;2.71;100.00
3132;BME280;62090;52.330;9.104;2023-01-26T10:10:45;101824.09;;;2.81;100.00
3132;BME280;62090;52.330;9.104;2023-01-26T10:13:16;101792.13;;;2.57;100.00
3132;BME280;62090;52.330;9.104;2023-01-26T10:15:48;101790.84;;;2.73;100.00
3132;BME280;62090;52.330;9.104;2023-01-26T10:18:25;101797.59;;;2.63;100.00
3132;BME280;62090;52.330;9.104;2023-01-26T10:20:58;101782.69;;;2.54;100.00
3132;BME280;62090;52.330;9.104;2023-01-26T10:23:31;101785.34;;;2.67;100.00
3132;BME280;62090;52.330;9.104;2023-01-26T10:26:10;101788.31;;;2.62;100.00
3132;BME280;62090;52.330;9.104;2023-01-26T10:28:42;101753.59;;;2.34;100.00
3132;BME280;62090;52.330;9.104;2023-01-26T10:31:15;101772.00;;;2.57;100.00
3132;BME280;62090;52.330;9.104;2023-01-26T10:33:50;101795.84;;;2.62;100.00
3132;BME280;62090;52.330;9.104;2023-01-26T10:36:21;101777.69;;;2.66;100.00
3132;BME280;62090;52.330;9.104;2023-01-26T10:38:51;101784.69;;;2.70;100.00
3132;BME280;62090;52.330;9.104;2023-01-26T10:41:25;101719.22;;;2.23;100.00
3132;BME280;62090;52.330;9.104;2023-01-26T10:43:56;101777.81;;;2.67;100.00
3132;BME280;62090;52.330;9.104;2023-01-26T10:46:31;101774.53;;;2.80;100.00
3132;BME280;62090;52.330;9.104;2023-01-26T10:49:03;101754.38;;;2.57;100.00
3132;BME280;62090;52.330;9.104;2023-01-26T10:51:43;101757.22;;;2.49;100.00
3132;BME280;62090;52.330;9.104;2023-01-26T10:54:21;101773.00;;;2.82;100.00
3132;BME280;62090;52.330;9.104;2023-01-26T10:56:55;101752.66;;;2.79;100.00
3132;BME280;62090;52.330;9.104;2023-01-26T10:59:31;101766.56;;;2.85;100.00
3132;BME280;62090;52.330;9.104;2023-01-26T11:02:19;101758.78;;;2.94;100.00
3132;BME280;62090;52.330;9.104;2023-01-26T11:05:14;101769.28;;;3.00;100.00
3132;BME280;62090;52.330;9.104;2023-01-26T11:07:45;101758.78;;;3.06;100.00
3132;BME280;62090;52.330;9.104;2023-01-26T11:10:21;101759.41;;;3.15;100.00
3132;BME280;62090;52.330;9.104;2023-01-26T11:13:06;101755.56;;;3.20;100.00
3132;BME280;62090;52.330;9.104;2023-01-26T11:15:38;101754.81;;;3.21;100.00
3132;BME280;62090;52.330;9.104;2023-01-26T11:18:17;101744.41;;;3.16;100.00
3132;BME280;62090;52.330;9.104;2023-01-26T11:20:55;101760.72;;;3.21;100.00
3132;BME280;62090;52.330;9.104;2023-01-26T11:23:41;101759.66;;;3.06;100.00
3132;BME280;62090;52.330;9.104;2023-01-26T11:29:55;101736.19;;;3.07;100.00
3132;BME280;62090;52.330;9.104;2023-01-26T11:32:36;101703.28;;;2.92;100.00
3132;BME280;62090;52.330;9.104;2023-01-26T11:35:15;101748.44;;;3.26;100.00
3132;BME280;62090;52.330;9.104;2023-01-26T11:37:56;101730.94;;;3.16;100.00
3132;BME280;62090;52.330;9.104;2023-01-26T11:40:38;101728.00;;;3.10;100.00
3132;BME280;62090;52.330;9.104;2023-01-26T11:43:25;101734.34;;;3.05;100.00
3132;BME280;62090;52.330;9.104;2023-01-26T11:46:19;101737.06;;;3.08;100.00
3132;BME280;62090;52.330;9.104;2023-01-26T11:49:02;101741.09;;;3.17;100.00
3132;BME280;62090;52.330;9.104;2023-01-26T11:51:46;101734.53;;;3.19;100.00
3132;BME280;62090;52.330;9.104;2023-01-26T11:54:29;101738.81;;;3.20;100.00
3132;BME280;62090;52.330;9.104;2023-01-26T11:57:16;101740.91;;;3.14;100.00
3132;BME280;62090;52.330;9.104;2023-01-26T11:59:53;101725.16;;;3.05;100.00
3132;BME280;62090;52.330;9.104;2023-01-26T12:02:29;101726.22;;;3.20;100.00
3132;BME280;62090;52.330;9.104;2023-01-26T12:05:02;101732.03;;;3.19;100.00
3132;BME280;62090;52.330;9.104;2023-01-26T12:07:43;101699.22;;;3.06;100.00
3132;BME280;62090;52.330;9.104;2023-01-26T12:10:26;101717.91;;;3.10;100.00
3132;BME280;62090;52.330;9.104;2023-01-26T12:13:04;101711.44;;;3.13;100.00
3132;BME280;62090;52.330;9.104;2023-01-26T12:15:38;101720.75;;;3.14;100.00
3132;BME280;62090;52.330;9.104;2023-01-26T12:18:21;101710.13;;;3.18;100.00
3132;BME280;62090;52.330;9.104;2023-01-26T12:21:11;101712.00;;;3.21;100.00
3132;BME280;62090;52.330;9.104;2023-01-26T12:23:45;101715.16;;;3.18;100.00
3132;BME280;62090;52.330;9.104;2023-01-26T12:26:18;101705.41;;;3.23;100.00
3132;BME280;62090;52.330;9.104;2023-01-26T12:29:03;101693.59;;;3.22;100.00
3132;BME280;62090;52.330;9.104;2023-01-26T12:31:42;101690.72;;;3.17;100.00
3132;BME280;62090;52.330;9.104;2023-01-26T12:34:23;101689.97;;;3.18;100.00
3132;BME280;62090;52.330;9.104;2023-01-26T12:37:06;101678.72;;;3.13;100.00
3132;BME280;62090;52.330;9.104;2023-01-26T12:39:43;101694.81;;;3.52;100.00
3132;BME280;62090;52.330;9.104;2023-01-26T12:42:22;101678.38;;;4.08;100.00
3132;BME280;62090;52.330;9.104;2023-01-26T12:44:58;101680.59;;;4.03;100.00
3132;BME280;62090;52.330;9.104;2023-01-26T12:47:31;101675.97;;;5.01;100.00
3132;BME280;62090;52.330;9.104;2023-01-26T12:50:10;101622.16;;;4.48;100.00
3132;BME280;62090;52.330;9.104;2023-01-26T12:52:47;101673.47;;;4.36;100.00
3132;BME280;62090;52.330;9.104;2023-01-26T12:55:22;101665.69;;;4.06;100.00
3132;BME280;62090;52.330;9.104;2023-01-26T12:57:54;101656.91;;;3.88;100.00
3132;BME280;62090;52.330;9.104;2023-01-26T13:00:29;101680.00;;;3.94;100.00
3132;BME280;62090;52.330;9.104;2023-01-26T13:03:02;101676.59;;;3.80;100.00
3132;BME280;62090;52.330;9.104;2023-01-26T13:05:53;101664.81;;;3.68;100.00
3132;BME280;62090;52.330;9.104;2023-01-26T13:08:40;101648.28;;;3.60;100.00
3132;BME280;62090;52.330;9.104;2023-01-26T13:14:29;101665.13;;;3.72;100.00
3132;BME280;62090;52.330;9.104;2023-01-26T13:19:58;101654.91;;;3.58;100.00
3132;BME280;62090;52.330;9.104;2023-01-26T13:22:45;101668.25;;;3.57;100.00
3132;BME280;62090;52.330;9.104;2023-01-26T13:25:17;101675.47;;;3.64;100.00
3132;BME280;62090;52.330;9.104;2023-01-26T13:27:54;101664.97;;;3.58;100.00
3132;BME280;62090;52.330;9.104;2023-01-26T13:30:43;101675.66;;;3.67;100.00
3132;BME280;62090;52.330;9.104;2023-01-26T13:33:16;101668.78;;;3.64;100.00
3132;BME280;62090;52.330;9.104;2023-01-26T13:35:47;101668.00;;;3.65;100.00
3132;BME280;62090;52.330;9.104;2023-01-26T13:38:26;101646.56;;;3.59;100.00
3132;BME280;62090;52.330;9.104;2023-01-26T13:40:59;101667.91;;;3.64;100.00
3132;BME280;62090;52.330;9.104;2023-01-26T13:43:34;101665.59;;;3.67;100.00
3132;BME280;62090;52.330;9.104;2023-01-26T13:46:15;101677.84;;;3.74;100.00
3132;BME280;62090;52.330;9.104;2023-01-26T13:48:48;101631.97;;;3.42;100.00
3132;BME280;62090;52.330;9.104;2023-01-26T13:51:19;101647.91;;;3.54;100.00